Cytokinetics Inc (NASDAQ:CYTK)

CAPS Rating: 3 out of 5

A biopharmaceutical company, focused on developing small molecule therapeutics for the treatment of cardiovascular diseases and cancer.

Results 1 - 99 of 191 : 1 2 Next »
Top
Pick
Member Name Member
Rating
Start
Date
Call Time
Frame
Start
Price
Stock
Gain
Index
Gain
Score Commentary
cthomas1017 98.63 11/18/2014 Underperform 5Y $4.11 +11.68% +1.57% -10.11 0 Comment
flemishinvestor < 20 11/18/2014 Outperform 3Y $4.21 +9.03% +1.14% +7.88 0 Comment
MacroHedge 93.49 11/7/2014 Outperform 5Y $4.11 +11.68% +2.17% +9.51 0 Comment
hayrettin 70.00 10/13/2014 Outperform 5Y $3.37 +36.20% +9.26% +26.94 0 Comment
andressiimon 90.68 9/29/2014 Underperform 3M $3.68 +24.73% +5.07% -19.66 0 Comment
ptanabe 70.34 9/9/2014 Outperform 5Y $3.67 +24.98% +3.77% +21.21 1 Comment
GyroDynasty 98.60 7/21/2014 Outperform 5Y $4.25 +8.00% +5.35% +2.65 0 Comment
OKwarrior 40.24 6/6/2014 Outperform 5Y $4.88 -5.94% +6.55% -12.50 1 Comment
ArmyRob 73.86 5/7/2014 Underperform 5Y $4.14 +10.87% +10.73% -0.14 0 Comment
foufou1971 62.21 4/28/2014 Outperform 1Y $4.35 +5.52% +11.73% -6.21 0 Comment
AsianMatter < 20 4/28/2014 Outperform 3W $4.58 +0.22% +11.01% -10.79 0 Comment
portefeuille2 99.67 4/25/2014 Outperform 5Y $4.91 -6.42% +11.29% -17.71 0 Comment
peregrine 98.98 4/25/2014 Outperform 5Y $5.07 -9.47% +11.58% -21.05 0 Comment
SandmanKy 93.99 4/25/2014 Outperform 5Y $5.01 -8.37% +11.32% -19.69 0 Comment
DoubleBagel 49.19 4/25/2014 Outperform 5Y $5.22 -12.07% +10.87% -22.94 0 Comment
portefeuille 99.67 4/16/2014 Outperform 5Y $8.95 -48.72% +11.95% -60.67 0 Comment
TerryFool 43.30 4/15/2014 Outperform 5Y $8.94 -48.66% +14.01% -62.67 1 Comment
TerryHoodSr 59.57 4/15/2014 Outperform 5Y $8.94 -48.66% +13.30% -61.96 1 Comment
msb09 < 20 4/2/2014 Outperform 3M $9.79 -53.12% +10.15% -63.27 0 Comment
Haugurafpeningum 28.68 3/31/2014 Outperform 5Y $9.20 -50.11% +11.25% -61.35 0 Comment
IVolStrategy < 20 3/26/2014 Outperform 1Y $9.02 -49.11% +11.02% -60.13 0 Comment
BioForcePicks1 90.21 3/25/2014 Outperform 3M $8.94 -48.66% +11.55% -60.21 0 Comment
Dmaral < 20 2/27/2014 Outperform 5Y $10.31 -55.48% +12.07% -67.55 0 Comment
This player feels very strongly about this pick and has marked it a Top Pick. Top Picks do not affect a player’s score. s2dbaker 79.13 1/10/2014 Outperform 5Y $9.22 -50.22% +13.08% -63.29 1 Comment
flypower 98.75 1/7/2014 Outperform 5Y $7.30 -37.12% +13.41% -50.53 0 Comment
HoosierDoozer < 20 12/23/2013 Outperform 5Y $6.60 -30.45% +13.75% -44.20 0 Comment
grahamfordummies 66.09 8/8/2013 12/4/2013 Outperform 3Y $10.21 -55.04% +22.16% -77.20 1 Comment
cavemantrader 87.32 11/7/2013 Outperform 5Y $6.33 -27.49% +18.66% -46.15 0 Comment
mandynshane < 20 10/8/2013 Outperform NS $6.69 -31.39% +24.51% -55.90 0 Comment
ImFive 34.73 10/7/2013 Outperform 5Y $7.03 -34.71% +24.02% -58.73 0 Comment
ralonsot < 20 10/2/2013 Outperform 5Y $7.38 -37.80% +23.00% -60.80 0 Comment
withoutDoubt < 20 9/5/2013 Outperform 5Y $8.32 -44.86% +24.99% -69.86 0 Comment
fatmoneyrz 98.57 9/3/2013 Outperform 5Y $7.79 -41.08% +25.62% -66.70 0 Comment
KidJones 97.91 9/3/2013 Outperform 5Y $8.62 -46.75% +25.67% -72.42 0 Comment
Greeniesnack 50.24 8/23/2013 Outperform 5Y $11.11 -58.69% +24.67% -83.36 0 Comment
FoolPep 31.87 8/22/2013 Outperform 3M $11.60 -60.43% +25.92% -86.35 0 Comment
SCOTTRHUETTLCPA 65.82 8/19/2013 Underperform 3W $10.18 -54.91% +25.71% +80.62 0 Comment
rknapton < 20 8/7/2013 Underperform 5Y $10.55 -56.49% +22.73% +79.22 1 Comment
ababrmon 95.05 7/31/2013 Outperform 3M $12.47 -63.19% +23.10% -86.29 0 Comment
efarev 98.81 2/4/2011 7/26/2013 Outperform 5Y $11.16 -58.87% +58.67% -117.54 0 Comment
ronmcpeek < 20 7/19/2013 Outperform 5Y $13.43 -65.82% +23.21% -89.04 0 Comment
TMFEZMagic 30.73 7/15/2013 Underperform 5Y $13.76 -66.64% +23.66% +90.30 0 Comment
batman35 27.54 7/12/2013 Outperform 1Y $13.60 -66.25% +23.96% -90.21 0 Comment
kaletbaldrich27 < 20 7/10/2013 Outperform 1Y $13.30 -65.49% +25.99% -91.48 1 Comment
OriginalBarnacle 82.34 7/1/2013 Underperform 1Y $11.58 -60.36% +28.76% +89.12 0 Comment
Jsams82 < 20 7/1/2013 Outperform 1Y $11.58 -60.36% +28.76% -89.12 0 Comment
JJ68 < 20 6/26/2013 Outperform 5Y $12.10 -62.08% +30.10% -92.18 0 Comment
ytryan 49.77 6/19/2013 Outperform 5Y $11.28 -59.31% +26.09% -85.41 0 Comment
Scraming < 20 6/19/2013 Outperform 3M $11.58 -60.36% +25.44% -85.80 0 Comment
saab93boi < 20 6/18/2013 Underperform 5Y $11.10 -58.65% +25.16% +83.81 0 Comment
shonny2 < 20 5/22/2013 Outperform 5Y $6.90 -33.47% +23.85% -57.32 0 Comment
OttoBismarck 99.90 5/10/2013 Underperform 5Y $6.42 -28.50% +27.39% +55.90 0 Comment
mcdbenbe < 20 2/19/2013 Outperform 5Y $6.24 -26.44% +36.27% -62.72 0 Comment
ava5147 < 20 2/19/2013 Outperform 1Y $6.24 -26.44% +36.27% -62.72 0 Comment
montys3 < 20 1/22/2013 Outperform 5Y $5.99 -23.32% +39.50% -62.83 0 Comment
Spyrig < 20 12/17/2012 Outperform 5Y $4.02 +14.18% +45.74% -31.56 0 Comment
mdrnsamurai < 20 12/12/2012 Outperform 5Y $4.29 +6.99% +44.19% -37.20 0 Comment
danculbertson 57.16 10/15/2012 Outperform 3M $4.41 +4.08% +44.53% -40.44 0 Comment
millerto 43.09 8/31/2012 Outperform 1Y $4.58 +0.28% +47.33% -47.05 0 Comment
IdahoInvestor 29.11 8/8/2012 Underperform 5Y $4.00 +14.73% +47.78% +33.05 0 Comment
iadops40 34.83 7/13/2012 Outperform 1Y $4.02 +14.18% +55.12% -40.94 0 Comment
THERULERGOD < 20 7/11/2012 Outperform 5Y $4.26 +7.75% +54.71% -46.97 0 Comment
greentah 59.47 7/9/2012 Outperform 5Y $4.32 +6.25% +53.38% -47.13 0 Comment
HongHue 28.06 7/6/2012 Outperform 1Y $3.90 +17.69% +53.27% -35.58 0 Comment
Harlequinvestor 39.96 6/18/2012 Outperform 1Y $5.16 -11.05% +55.44% -66.49 0 Comment
ConradMike55 < 20 5/10/2012 Outperform 3W $5.58 -17.74% +51.92% -69.66 0 Comment
Arsenal1860 < 20 5/10/2012 Outperform 5Y $5.58 -17.74% +51.92% -69.66 0 Comment
MythQuinn 91.82 5/8/2012 Outperform 3Y $5.52 -16.85% +52.09% -68.94 0 Comment
stainsolution 42.33 5/8/2012 Outperform 5Y $5.70 -19.47% +52.36% -71.84 0 Comment
foolbull12 < 20 5/8/2012 Outperform 5Y $5.52 -16.85% +52.53% -69.38 0 Comment
RBuskey106 47.04 3/15/2012 Outperform 5Y $7.14 -35.71% +47.71% -83.43 1 Comment
TechSci 30.14 3/6/2012 Outperform 5Y $6.54 -29.82% +53.86% -83.68 0 Comment
mhy729 29.90 2/17/2011 2/13/2012 Outperform 1Y $9.18 -49.99% +55.30% -105.29 0 Comment
drt2202 < 20 12/29/2011 Outperform 5Y $5.94 -22.73% +65.79% -88.52 0 Comment
CaptainVegetable < 20 8/5/2011 Outperform 5Y $7.14 -35.71% +70.77% -106.48 0 Comment
pobeda79 32.74 6/20/2011 Outperform 5Y $6.90 -33.48% +63.99% -97.46 0 Comment
amsteinberg86 < 20 5/31/2011 Outperform 3Y $8.64 -46.88% +54.07% -100.94 0 Comment
codyjr002 98.20 5/27/2011 Outperform 5Y $8.64 -46.88% +55.54% -102.41 0 Comment
Thleter 38.64 5/24/2011 Outperform 1Y $8.10 -43.33% +57.34% -100.67 1 Comment
ag77840 22.30 5/18/2011 Outperform 5Y $8.61 -46.69% +54.75% -101.44 0 Comment
Doggity 66.65 5/17/2011 Outperform 5Y $8.64 -46.88% +56.49% -103.36 0 Comment
Euro247 32.93 5/13/2011 Outperform 5Y $8.79 -47.78% +55.11% -102.89 0 Comment
inouye 53.48 5/3/2011 Outperform 1Y $8.52 -46.13% +53.17% -99.30 0 Comment
NVTreasureHunter 29.05 4/27/2011 Outperform NS $9.00 -49.00% +53.75% -102.75 0 Comment
Squeege1981 50.79 4/18/2011 Outperform 5Y $8.64 -46.88% +59.00% -105.88 0 Comment
reachmygoals1 < 20 4/11/2011 Outperform 3M $8.94 -48.66% +56.12% -104.78 0 Comment
limeonaire 99.03 4/4/2011 Outperform 5Y $9.00 -49.00% +55.62% -104.62 0 Comment
ajhers2 < 20 3/25/2011 Outperform 5Y $8.46 -45.74% +57.49% -103.24 0 Comment
lombardy 30.52 3/22/2011 Outperform 5Y $7.62 -39.76% +60.07% -99.83 0 Comment
binyalazar < 20 3/10/2011 Outperform 5Y $8.99 -48.97% +59.01% -107.98 0 Comment
WorldOnFire 28.46 2/23/2011 Outperform 3W $8.70 -47.24% +57.60% -104.84 0 Comment
HackInvestor < 20 2/22/2011 Outperform 5Y $9.12 -49.67% +55.98% -105.65 0 Comment
cheaply 21.06 2/10/2011 Outperform 1Y $11.16 -58.87% +57.78% -116.65 1 Comment
phineas333 30.73 2/10/2011 Outperform 5Y $11.04 -58.42% +57.78% -116.21 0 Comment
Cjbrat1 29.38 1/10/2011 Outperform 5Y $12.36 -62.86% +64.04% -126.90 0 Comment
atlasbooks 88.27 1/4/2011 Outperform 3M $12.96 -64.58% +63.07% -127.66 0 Comment
FinanceGuy58 55.74 12/20/2010 Outperform 5Y $13.14 -65.07% +66.59% -131.66 0 Comment
Okcfirefighter < 20 12/17/2010 Outperform 5Y $12.72 -63.92% +66.99% -130.91 0 Comment
smcnei2 27.27 12/13/2010 Outperform NS $13.80 -66.74% +66.05% -132.78 0 Comment
Results 1 - 99 of 191 : 1 2 Next »

Featured Broker Partners


Advertisement